sensor_id;sensor_type;location;lat;lon;timestamp;P1;durP1;ratioP1;P2;durP2;ratioP2
6693;SDS011;3384;42.628;23.380;2023-02-05T00:01:37;0.87;;;0.87;;
6693;SDS011;3384;42.628;23.380;2023-02-05T00:04:06;16.07;;;2.33;;
6693;SDS011;3384;42.628;23.380;2023-02-05T00:06:32;1.10;;;1.10;;
6693;SDS011;3384;42.628;23.380;2023-02-05T00:08:59;1.80;;;1.70;;
6693;SDS011;3384;42.628;23.380;2023-02-05T00:11:26;4.23;;;1.20;;
6693;SDS011;3384;42.628;23.380;2023-02-05T00:13:53;1.90;;;1.80;;
6693;SDS011;3384;42.628;23.380;2023-02-05T00:16:21;2.00;;;1.63;;
6693;SDS011;3384;42.628;23.380;2023-02-05T00:18:49;0.80;;;0.80;;
6693;SDS011;3384;42.628;23.380;2023-02-05T00:21:25;1.10;;;0.60;;
6693;SDS011;3384;42.628;23.380;2023-02-05T00:23:54;1.20;;;1.20;;
6693;SDS011;3384;42.628;23.380;2023-02-05T00:26:21;1.10;;;1.03;;
6693;SDS011;3384;42.628;23.380;2023-02-05T00:28:48;0.70;;;0.70;;
6693;SDS011;3384;42.628;23.380;2023-02-05T00:31:16;0.87;;;0.87;;
6693;SDS011;3384;42.628;23.380;2023-02-05T00:33:45;0.50;;;0.50;;
6693;SDS011;3384;42.628;23.380;2023-02-05T00:36:12;0.90;;;0.90;;
6693;SDS011;3384;42.628;23.380;2023-02-05T00:38:42;1.00;;;1.00;;
6693;SDS011;3384;42.628;23.380;2023-02-05T00:44:04;1.17;;;1.17;;
6693;SDS011;3384;42.628;23.380;2023-02-05T00:49:02;0.70;;;0.70;;
6693;SDS011;3384;42.628;23.380;2023-02-05T00:51:30;1.73;;;1.63;;
6693;SDS011;3384;42.628;23.380;2023-02-05T00:54:01;0.60;;;0.60;;
6693;SDS011;3384;42.628;23.380;2023-02-05T00:56:28;1.10;;;1.10;;
6693;SDS011;3384;42.628;23.380;2023-02-05T00:58:57;1.43;;;0.97;;
6693;SDS011;3384;42.628;23.380;2023-02-05T01:01:24;0.77;;;0.77;;
6693;SDS011;3384;42.628;23.380;2023-02-05T01:03:51;1.33;;;1.20;;
6693;SDS011;3384;42.628;23.380;2023-02-05T01:06:20;0.90;;;0.90;;
6693;SDS011;3384;42.628;23.380;2023-02-05T01:08:47;1.00;;;0.90;;
6693;SDS011;3384;42.628;23.380;2023-02-05T01:11:15;9.07;;;0.80;;
6693;SDS011;3384;42.628;23.380;2023-02-05T01:13:46;0.87;;;0.87;;
6693;SDS011;3384;42.628;23.380;2023-02-05T01:16:15;1.23;;;1.23;;
6693;SDS011;3384;42.628;23.380;2023-02-05T01:18:42;0.70;;;0.70;;
6693;SDS011;3384;42.628;23.380;2023-02-05T01:21:09;0.80;;;0.80;;
6693;SDS011;3384;42.628;23.380;2023-02-05T01:23:35;0.90;;;0.80;;
6693;SDS011;3384;42.628;23.380;2023-02-05T01:26:02;1.03;;;1.03;;
6693;SDS011;3384;42.628;23.380;2023-02-05T01:28:31;4.30;;;1.23;;
6693;SDS011;3384;42.628;23.380;2023-02-05T01:30:58;1.73;;;1.63;;
6693;SDS011;3384;42.628;23.380;2023-02-05T01:33:24;0.60;;;0.60;;
6693;SDS011;3384;42.628;23.380;2023-02-05T01:35:51;1.67;;;1.67;;
6693;SDS011;3384;42.628;23.380;2023-02-05T01:38:18;1.37;;;1.37;;
6693;SDS011;3384;42.628;23.380;2023-02-05T01:40:47;1.37;;;1.37;;
6693;SDS011;3384;42.628;23.380;2023-02-05T01:43:14;1.30;;;1.20;;
6693;SDS011;3384;42.628;23.380;2023-02-05T01:45:53;0.90;;;0.90;;
6693;SDS011;3384;42.628;23.380;2023-02-05T01:48:33;1.10;;;1.10;;
6693;SDS011;3384;42.628;23.380;2023-02-05T01:51:04;0.70;;;0.70;;
6693;SDS011;3384;42.628;23.380;2023-02-05T01:53:34;1.10;;;1.10;;
6693;SDS011;3384;42.628;23.380;2023-02-05T01:56:03;0.67;;;0.67;;
6693;SDS011;3384;42.628;23.380;2023-02-05T01:58:37;0.47;;;0.47;;
6693;SDS011;3384;42.628;23.380;2023-02-05T02:01:09;1.30;;;1.30;;
6693;SDS011;3384;42.628;23.380;2023-02-05T02:03:36;1.00;;;1.00;;
6693;SDS011;3384;42.628;23.380;2023-02-05T02:06:04;7.43;;;1.13;;
6693;SDS011;3384;42.628;23.380;2023-02-05T02:08:34;0.80;;;0.80;;
6693;SDS011;3384;42.628;23.380;2023-02-05T02:11:06;1.10;;;0.80;;
6693;SDS011;3384;42.628;23.380;2023-02-05T02:16:42;0.80;;;0.80;;
6693;SDS011;3384;42.628;23.380;2023-02-05T02:19:14;1.00;;;1.00;;
6693;SDS011;3384;42.628;23.380;2023-02-05T02:21:55;1.27;;;1.27;;
6693;SDS011;3384;42.628;23.380;2023-02-05T02:27:59;1.00;;;1.00;;
6693;SDS011;3384;42.628;23.380;2023-02-05T02:30:33;0.87;;;0.87;;
6693;SDS011;3384;42.628;23.380;2023-02-05T02:33:06;0.60;;;0.60;;
6693;SDS011;3384;42.628;23.380;2023-02-05T02:35:41;1.27;;;1.27;;
6693;SDS011;3384;42.628;23.380;2023-02-05T02:38:14;1.30;;;1.30;;
6693;SDS011;3384;42.628;23.380;2023-02-05T02:40:48;1.10;;;1.00;;
6693;SDS011;3384;42.628;23.380;2023-02-05T02:43:25;0.93;;;0.93;;
6693;SDS011;3384;42.628;23.380;2023-02-05T02:46:00;1.03;;;1.03;;
6693;SDS011;3384;42.628;23.380;2023-02-05T02:48:34;1.17;;;1.17;;
6693;SDS011;3384;42.628;23.380;2023-02-05T02:51:06;0.67;;;0.67;;
6693;SDS011;3384;42.628;23.380;2023-02-05T02:53:35;0.93;;;0.93;;
6693;SDS011;3384;42.628;23.380;2023-02-05T02:56:05;1.13;;;1.13;;
6693;SDS011;3384;42.628;23.380;2023-02-05T02:58:41;1.10;;;1.00;;
6693;SDS011;3384;42.628;23.380;2023-02-05T03:01:16;1.03;;;1.03;;
6693;SDS011;3384;42.628;23.380;2023-02-05T03:03:50;0.40;;;0.30;;
6693;SDS011;3384;42.628;23.380;2023-02-05T03:06:31;1.57;;;1.10;;
6693;SDS011;3384;42.628;23.380;2023-02-05T03:09:00;1.20;;;1.20;;
6693;SDS011;3384;42.628;23.380;2023-02-05T03:11:31;0.93;;;0.93;;
6693;SDS011;3384;42.628;23.380;2023-02-05T03:14:01;1.50;;;1.50;;
6693;SDS011;3384;42.628;23.380;2023-02-05T03:19:09;1.07;;;0.70;;
6693;SDS011;3384;42.628;23.380;2023-02-05T03:21:37;1.13;;;1.03;;
6693;SDS011;3384;42.628;23.380;2023-02-05T03:24:08;1.00;;;1.00;;
6693;SDS011;3384;42.628;23.380;2023-02-05T03:26:35;0.70;;;0.70;;
6693;SDS011;3384;42.628;23.380;2023-02-05T03:29:05;1.30;;;1.30;;
6693;SDS011;3384;42.628;23.380;2023-02-05T03:31:34;0.93;;;0.93;;
6693;SDS011;3384;42.628;23.380;2023-02-05T03:34:11;0.83;;;0.83;;
6693;SDS011;3384;42.628;23.380;2023-02-05T03:36:48;0.97;;;0.97;;
6693;SDS011;3384;42.628;23.380;2023-02-05T03:39:26;1.10;;;1.10;;
6693;SDS011;3384;42.628;23.380;2023-02-05T03:42:07;1.03;;;1.03;;
6693;SDS011;3384;42.628;23.380;2023-02-05T03:44:51;1.50;;;1.50;;
6693;SDS011;3384;42.628;23.380;2023-02-05T03:47:36;1.43;;;1.40;;
6693;SDS011;3384;42.628;23.380;2023-02-05T03:50:11;1.17;;;1.13;;
6693;SDS011;3384;42.628;23.380;2023-02-05T03:52:48;1.50;;;1.40;;
6693;SDS011;3384;42.628;23.380;2023-02-05T03:55:17;0.80;;;0.80;;
6693;SDS011;3384;42.628;23.380;2023-02-05T03:57:49;1.03;;;1.03;;
6693;SDS011;3384;42.628;23.380;2023-02-05T04:00:23;0.60;;;0.60;;
6693;SDS011;3384;42.628;23.380;2023-02-05T04:02:51;1.37;;;1.30;;
6693;SDS011;3384;42.628;23.380;2023-02-05T04:05:20;1.03;;;1.03;;
6693;SDS011;3384;42.628;23.380;2023-02-05T04:07:50;0.70;;;0.70;;
6693;SDS011;3384;42.628;23.380;2023-02-05T04:10:17;1.03;;;0.93;;
6693;SDS011;3384;42.628;23.380;2023-02-05T04:12:45;0.77;;;0.77;;
6693;SDS011;3384;42.628;23.380;2023-02-05T04:15:11;1.40;;;1.30;;
6693;SDS011;3384;42.628;23.380;2023-02-05T04:17:40;1.80;;;1.70;;
6693;SDS011;3384;42.628;23.380;2023-02-05T04:20:07;1.07;;;0.80;;
6693;SDS011;3384;42.628;23.380;2023-02-05T04:22:35;0.83;;;0.83;;
6693;SDS011;3384;42.628;23.380;2023-02-05T04:25:02;1.10;;;1.10;;
6693;SDS011;3384;42.628;23.380;2023-02-05T04:27:29;1.50;;;1.50;;
6693;SDS011;3384;42.628;23.380;2023-02-05T04:29:58;0.60;;;0.60;;
6693;SDS011;3384;42.628;23.380;2023-02-05T04:32:27;0.60;;;0.60;;
6693;SDS011;3384;42.628;23.380;2023-02-05T04:34:58;2.00;;;1.90;;
6693;SDS011;3384;42.628;23.380;2023-02-05T04:37:26;0.90;;;0.90;;
6693;SDS011;3384;42.628;23.380;2023-02-05T04:39:53;0.90;;;0.90;;
6693;SDS011;3384;42.628;23.380;2023-02-05T04:42:20;0.70;;;0.70;;
6693;SDS011;3384;42.628;23.380;2023-02-05T04:44:50;1.10;;;1.10;;
6693;SDS011;3384;42.628;23.380;2023-02-05T04:47:19;0.93;;;0.93;;
6693;SDS011;3384;42.628;23.380;2023-02-05T04:49:57;1.00;;;1.00;;
6693;SDS011;3384;42.628;23.380;2023-02-05T04:52:25;0.77;;;0.77;;
6693;SDS011;3384;42.628;23.380;2023-02-05T04:54:52;1.00;;;1.00;;
6693;SDS011;3384;42.628;23.380;2023-02-05T04:57:19;0.97;;;0.83;;
6693;SDS011;3384;42.628;23.380;2023-02-05T04:59:46;2.17;;;1.17;;
6693;SDS011;3384;42.628;23.380;2023-02-05T05:02:13;0.97;;;0.97;;
6693;SDS011;3384;42.628;23.380;2023-02-05T05:04:39;1.10;;;1.10;;
6693;SDS011;3384;42.628;23.380;2023-02-05T05:07:08;0.97;;;0.97;;
6693;SDS011;3384;42.628;23.380;2023-02-05T05:09:35;1.13;;;1.13;;
6693;SDS011;3384;42.628;23.380;2023-02-05T05:12:02;1.00;;;1.00;;
6693;SDS011;3384;42.628;23.380;2023-02-05T05:14:33;1.20;;;1.20;;
6693;SDS011;3384;42.628;23.380;2023-02-05T05:17:01;1.47;;;1.47;;
6693;SDS011;3384;42.628;23.380;2023-02-05T05:19:28;2.10;;;2.00;;
6693;SDS011;3384;42.628;23.380;2023-02-05T05:21:55;0.70;;;0.70;;
6693;SDS011;3384;42.628;23.380;2023-02-05T05:24:23;1.17;;;1.17;;
6693;SDS011;3384;42.628;23.380;2023-02-05T05:26:50;0.37;;;0.37;;
6693;SDS011;3384;42.628;23.380;2023-02-05T05:29:21;3.13;;;2.27;;
6693;SDS011;3384;42.628;23.380;2023-02-05T05:31:50;1.10;;;1.10;;
6693;SDS011;3384;42.628;23.380;2023-02-05T05:34:20;0.83;;;0.83;;
6693;SDS011;3384;42.628;23.380;2023-02-05T05:36:48;0.73;;;0.73;;
6693;SDS011;3384;42.628;23.380;2023-02-05T05:39:15;1.53;;;1.10;;
6693;SDS011;3384;42.628;23.380;2023-02-05T05:42:00;2.10;;;2.10;;
6693;SDS011;3384;42.628;23.380;2023-02-05T05:44:47;0.63;;;0.63;;
6693;SDS011;3384;42.628;23.380;2023-02-05T05:47:16;1.97;;;1.00;;
6693;SDS011;3384;42.628;23.380;2023-02-05T05:49:43;3.60;;;1.17;;
6693;SDS011;3384;42.628;23.380;2023-02-05T05:52:10;2.00;;;0.83;;
6693;SDS011;3384;42.628;23.380;2023-02-05T05:54:36;0.50;;;0.50;;
6693;SDS011;3384;42.628;23.380;2023-02-05T05:57:05;0.70;;;0.70;;
6693;SDS011;3384;42.628;23.380;2023-02-05T05:59:32;2.10;;;0.80;;
6693;SDS011;3384;42.628;23.380;2023-02-05T06:01:59;1.10;;;1.10;;
6693;SDS011;3384;42.628;23.380;2023-02-05T06:04:26;2.90;;;0.87;;
6693;SDS011;3384;42.628;23.380;2023-02-05T06:06:58;0.90;;;0.90;;
6693;SDS011;3384;42.628;23.380;2023-02-05T06:11:54;0.93;;;0.93;;
6693;SDS011;3384;42.628;23.380;2023-02-05T06:14:22;0.63;;;0.63;;
6693;SDS011;3384;42.628;23.380;2023-02-05T06:16:51;1.10;;;1.10;;
6693;SDS011;3384;42.628;23.380;2023-02-05T06:19:22;0.40;;;0.40;;
6693;SDS011;3384;42.628;23.380;2023-02-05T06:21:49;1.67;;;1.10;;
6693;SDS011;3384;42.628;23.380;2023-02-05T06:24:16;1.53;;;1.43;;
6693;SDS011;3384;42.628;23.380;2023-02-05T06:26:43;1.17;;;1.17;;
6693;SDS011;3384;42.628;23.380;2023-02-05T06:29:10;0.50;;;0.50;;
6693;SDS011;3384;42.628;23.380;2023-02-05T06:31:38;2.17;;;2.07;;
6693;SDS011;3384;42.628;23.380;2023-02-05T06:34:05;0.87;;;0.87;;
6693;SDS011;3384;42.628;23.380;2023-02-05T06:36:32;1.23;;;1.23;;
6693;SDS011;3384;42.628;23.380;2023-02-05T06:38:59;1.10;;;1.10;;
6693;SDS011;3384;42.628;23.380;2023-02-05T06:41:28;1.37;;;1.20;;
6693;SDS011;3384;42.628;23.380;2023-02-05T06:43:55;1.20;;;1.20;;
6693;SDS011;3384;42.628;23.380;2023-02-05T06:46:24;0.70;;;0.70;;
6693;SDS011;3384;42.628;23.380;2023-02-05T06:48:52;1.20;;;1.20;;
6693;SDS011;3384;42.628;23.380;2023-02-05T06:51:19;0.70;;;0.70;;
6693;SDS011;3384;42.628;23.380;2023-02-05T06:53:46;2.00;;;0.83;;
6693;SDS011;3384;42.628;23.380;2023-02-05T07:01:37;0.80;;;0.60;;
6693;SDS011;3384;42.628;23.380;2023-02-05T07:04:05;0.80;;;0.80;;
6693;SDS011;3384;42.628;23.380;2023-02-05T07:06:32;0.63;;;0.63;;
6693;SDS011;3384;42.628;23.380;2023-02-05T07:09:01;0.83;;;0.63;;
6693;SDS011;3384;42.628;23.380;2023-02-05T07:11:28;0.70;;;0.70;;
6693;SDS011;3384;42.628;23.380;2023-02-05T07:13:55;1.17;;;1.17;;
6693;SDS011;3384;42.628;23.380;2023-02-05T07:16:25;1.20;;;1.20;;
6693;SDS011;3384;42.628;23.380;2023-02-05T07:18:52;0.50;;;0.50;;
6693;SDS011;3384;42.628;23.380;2023-02-05T07:21:20;0.27;;;0.27;;
6693;SDS011;3384;42.628;23.380;2023-02-05T07:23:47;1.70;;;1.70;;
6693;SDS011;3384;42.628;23.380;2023-02-05T07:26:15;0.60;;;0.60;;
6693;SDS011;3384;42.628;23.380;2023-02-05T07:28:43;1.37;;;1.37;;
6693;SDS011;3384;42.628;23.380;2023-02-05T07:31:13;1.10;;;1.10;;
6693;SDS011;3384;42.628;23.380;2023-02-05T07:33:42;1.50;;;1.40;;
6693;SDS011;3384;42.628;23.380;2023-02-05T07:36:10;1.00;;;1.00;;
6693;SDS011;3384;42.628;23.380;2023-02-05T07:38:42;1.20;;;1.20;;
6693;SDS011;3384;42.628;23.380;2023-02-05T07:41:10;2.47;;;1.90;;
6693;SDS011;3384;42.628;23.380;2023-02-05T07:43:39;1.03;;;0.80;;
6693;SDS011;3384;42.628;23.380;2023-02-05T07:46:07;1.20;;;1.20;;
6693;SDS011;3384;42.628;23.380;2023-02-05T07:48:35;1.87;;;1.67;;
6693;SDS011;3384;42.628;23.380;2023-02-05T07:51:02;3.43;;;2.03;;
6693;SDS011;3384;42.628;23.380;2023-02-05T07:53:35;1.33;;;1.23;;
6693;SDS011;3384;42.628;23.380;2023-02-05T07:56:04;1.43;;;1.33;;
6693;SDS011;3384;42.628;23.380;2023-02-05T07:58:32;1.30;;;1.30;;
6693;SDS011;3384;42.628;23.380;2023-02-05T08:00:59;1.43;;;1.27;;
6693;SDS011;3384;42.628;23.380;2023-02-05T08:03:27;0.70;;;0.70;;
6693;SDS011;3384;42.628;23.380;2023-02-05T08:05:54;1.23;;;1.17;;
6693;SDS011;3384;42.628;23.380;2023-02-05T08:08:21;2.60;;;2.47;;
6693;SDS011;3384;42.628;23.380;2023-02-05T08:10:53;1.40;;;1.33;;
6693;SDS011;3384;42.628;23.380;2023-02-05T08:13:27;1.30;;;1.30;;
6693;SDS011;3384;42.628;23.380;2023-02-05T08:15:55;1.10;;;1.10;;
6693;SDS011;3384;42.628;23.380;2023-02-05T08:18:25;2.87;;;1.70;;
6693;SDS011;3384;42.628;23.380;2023-02-05T08:20:52;3.10;;;3.00;;
6693;SDS011;3384;42.628;23.380;2023-02-05T08:23:20;1.87;;;1.80;;
6693;SDS011;3384;42.628;23.380;2023-02-05T08:25:47;5.23;;;1.97;;
6693;SDS011;3384;42.628;23.380;2023-02-05T08:28:18;1.80;;;1.70;;
6693;SDS011;3384;42.628;23.380;2023-02-05T08:30:46;1.10;;;1.10;;
6693;SDS011;3384;42.628;23.380;2023-02-05T08:33:14;2.57;;;1.80;;
6693;SDS011;3384;42.628;23.380;2023-02-05T08:35:41;8.93;;;2.07;;
6693;SDS011;3384;42.628;23.380;2023-02-05T08:38:08;2.20;;;1.73;;
6693;SDS011;3384;42.628;23.380;2023-02-05T08:40:35;2.97;;;2.87;;
6693;SDS011;3384;42.628;23.380;2023-02-05T08:43:02;2.23;;;2.10;;
6693;SDS011;3384;42.628;23.380;2023-02-05T08:45:29;2.90;;;2.70;;
6693;SDS011;3384;42.628;23.380;2023-02-05T08:47:57;0.70;;;0.70;;
6693;SDS011;3384;42.628;23.380;2023-02-05T08:50:24;1.90;;;1.80;;
6693;SDS011;3384;42.628;23.380;2023-02-05T08:52:51;0.63;;;0.63;;
6693;SDS011;3384;42.628;23.380;2023-02-05T08:55:18;0.30;;;0.30;;
6693;SDS011;3384;42.628;23.380;2023-02-05T08:57:45;1.60;;;1.03;;
6693;SDS011;3384;42.628;23.380;2023-02-05T09:00:12;0.73;;;0.73;;
6693;SDS011;3384;42.628;23.380;2023-02-05T09:02:42;0.93;;;0.93;;
6693;SDS011;3384;42.628;23.380;2023-02-05T09:05:10;0.40;;;0.40;;
6693;SDS011;3384;42.628;23.380;2023-02-05T09:07:37;0.57;;;0.57;;
6693;SDS011;3384;42.628;23.380;2023-02-05T09:10:05;0.70;;;0.70;;
6693;SDS011;3384;42.628;23.380;2023-02-05T09:12:33;0.60;;;0.30;;
6693;SDS011;3384;42.628;23.380;2023-02-05T09:15:00;0.80;;;0.80;;
6693;SDS011;3384;42.628;23.380;2023-02-05T09:17:27;0.50;;;0.50;;
6693;SDS011;3384;42.628;23.380;2023-02-05T09:19:54;0.47;;;0.47;;
6693;SDS011;3384;42.628;23.380;2023-02-05T09:22:22;0.50;;;0.50;;
6693;SDS011;3384;42.628;23.380;2023-02-05T09:24:49;1.23;;;0.93;;
6693;SDS011;3384;42.628;23.380;2023-02-05T09:27:16;0.60;;;0.60;;
6693;SDS011;3384;42.628;23.380;2023-02-05T09:29:42;0.93;;;0.93;;
6693;SDS011;3384;42.628;23.380;2023-02-05T09:32:11;1.33;;;0.83;;
6693;SDS011;3384;42.628;23.380;2023-02-05T09:34:38;0.70;;;0.70;;
6693;SDS011;3384;42.628;23.380;2023-02-05T09:37:05;1.47;;;1.37;;
6693;SDS011;3384;42.628;23.380;2023-02-05T09:39:33;1.10;;;1.00;;
6693;SDS011;3384;42.628;23.380;2023-02-05T09:42:03;1.10;;;1.10;;
6693;SDS011;3384;42.628;23.380;2023-02-05T09:44:56;0.87;;;0.70;;
6693;SDS011;3384;42.628;23.380;2023-02-05T09:47:36;1.43;;;1.43;;
6693;SDS011;3384;42.628;23.380;2023-02-05T09:50:10;1.80;;;1.70;;
6693;SDS011;3384;42.628;23.380;2023-02-05T09:52:41;0.80;;;0.80;;
6693;SDS011;3384;42.628;23.380;2023-02-05T09:55:16;1.03;;;1.03;;
6693;SDS011;3384;42.628;23.380;2023-02-05T09:57:46;4.37;;;2.50;;
6693;SDS011;3384;42.628;23.380;2023-02-05T10:00:16;1.13;;;0.57;;
6693;SDS011;3384;42.628;23.380;2023-02-05T10:02:50;0.77;;;0.77;;
6693;SDS011;3384;42.628;23.380;2023-02-05T10:05:23;1.40;;;1.03;;
6693;SDS011;3384;42.628;23.380;2023-02-05T10:07:57;0.80;;;0.80;;
6693;SDS011;3384;42.628;23.380;2023-02-05T10:10:35;1.33;;;1.33;;
6693;SDS011;3384;42.628;23.380;2023-02-05T10:13:23;0.50;;;0.50;;
6693;SDS011;3384;42.628;23.380;2023-02-05T10:19:00;4.70;;;1.07;;
6693;SDS011;3384;42.628;23.380;2023-02-05T10:24:15;0.70;;;0.70;;
6693;SDS011;3384;42.628;23.380;2023-02-05T10:26:56;0.30;;;0.30;;
6693;SDS011;3384;42.628;23.380;2023-02-05T10:29:31;1.97;;;1.40;;
6693;SDS011;3384;42.628;23.380;2023-02-05T10:32:13;0.43;;;0.43;;
6693;SDS011;3384;42.628;23.380;2023-02-05T10:34:55;1.07;;;1.07;;
6693;SDS011;3384;42.628;23.380;2023-02-05T10:37:29;1.63;;;0.93;;
6693;SDS011;3384;42.628;23.380;2023-02-05T10:40:10;0.53;;;0.53;;
6693;SDS011;3384;42.628;23.380;2023-02-05T10:42:44;0.80;;;0.80;;
6693;SDS011;3384;42.628;23.380;2023-02-05T10:45:15;0.60;;;0.60;;
6693;SDS011;3384;42.628;23.380;2023-02-05T10:47:51;0.50;;;0.50;;
6693;SDS011;3384;42.628;23.380;2023-02-05T10:50:26;0.70;;;0.70;;
6693;SDS011;3384;42.628;23.380;2023-02-05T10:53:11;0.30;;;0.30;;
6693;SDS011;3384;42.628;23.380;2023-02-05T10:55:46;1.00;;;0.93;;
6693;SDS011;3384;42.628;23.380;2023-02-05T10:58:23;1.07;;;1.03;;
6693;SDS011;3384;42.628;23.380;2023-02-05T11:01:01;0.40;;;0.40;;
6693;SDS011;3384;42.628;23.380;2023-02-05T11:03:28;1.07;;;1.07;;
6693;SDS011;3384;42.628;23.380;2023-02-05T11:05:56;1.10;;;1.10;;
6693;SDS011;3384;42.628;23.380;2023-02-05T11:08:30;0.57;;;0.57;;
6693;SDS011;3384;42.628;23.380;2023-02-05T11:10:58;1.00;;;1.00;;
6693;SDS011;3384;42.628;23.380;2023-02-05T11:13:31;0.57;;;0.57;;
6693;SDS011;3384;42.628;23.380;2023-02-05T11:16:08;0.97;;;0.97;;
6693;SDS011;3384;42.628;23.380;2023-02-05T11:18:37;0.80;;;0.80;;
6693;SDS011;3384;42.628;23.380;2023-02-05T11:21:14;0.67;;;0.60;;
6693;SDS011;3384;42.628;23.380;2023-02-05T11:23:42;0.40;;;0.40;;
6693;SDS011;3384;42.628;23.380;2023-02-05T11:29:19;1.10;;;1.10;;
6693;SDS011;3384;42.628;23.380;2023-02-05T11:31:51;1.27;;;0.57;;
6693;SDS011;3384;42.628;23.380;2023-02-05T11:34:20;0.60;;;0.60;;
6693;SDS011;3384;42.628;23.380;2023-02-05T11:36:48;0.60;;;0.60;;
6693;SDS011;3384;42.628;23.380;2023-02-05T11:39:27;0.30;;;0.20;;
6693;SDS011;3384;42.628;23.380;2023-02-05T11:42:06;0.47;;;0.47;;
6693;SDS011;3384;42.628;23.380;2023-02-05T11:44:41;0.43;;;0.43;;
6693;SDS011;3384;42.628;23.380;2023-02-05T11:47:17;0.40;;;0.40;;
6693;SDS011;3384;42.628;23.380;2023-02-05T11:49:50;0.33;;;0.27;;
6693;SDS011;3384;42.628;23.380;2023-02-05T11:52:23;0.50;;;0.40;;
6693;SDS011;3384;42.628;23.380;2023-02-05T11:54:52;0.87;;;0.87;;
6693;SDS011;3384;42.628;23.380;2023-02-05T11:57:28;0.87;;;0.87;;
6693;SDS011;3384;42.628;23.380;2023-02-05T11:59:59;2.10;;;0.60;;
6693;SDS011;3384;42.628;23.380;2023-02-05T12:02:29;0.40;;;0.30;;
6693;SDS011;3384;42.628;23.380;2023-02-05T12:05:16;0.73;;;0.50;;
6693;SDS011;3384;42.628;23.380;2023-02-05T12:07:50;0.30;;;0.30;;
6693;SDS011;3384;42.628;23.380;2023-02-05T12:10:23;0.30;;;0.30;;
6693;SDS011;3384;42.628;23.380;2023-02-05T12:13:02;0.60;;;0.60;;
6693;SDS011;3384;42.628;23.380;2023-02-05T12:15:40;0.40;;;0.40;;
6693;SDS011;3384;42.628;23.380;2023-02-05T12:18:19;0.67;;;0.67;;
6693;SDS011;3384;42.628;23.380;2023-02-05T12:21:04;0.40;;;0.40;;
6693;SDS011;3384;42.628;23.380;2023-02-05T12:23:49;0.60;;;0.60;;
6693;SDS011;3384;42.628;23.380;2023-02-05T12:26:41;3.90;;;0.90;;
6693;SDS011;3384;42.628;23.380;2023-02-05T12:29:20;0.80;;;0.80;;
6693;SDS011;3384;42.628;23.380;2023-02-05T12:31:58;0.30;;;0.30;;
6693;SDS011;3384;42.628;23.380;2023-02-05T12:34:35;0.30;;;0.30;;
6693;SDS011;3384;42.628;23.380;2023-02-05T12:37:22;1.07;;;0.70;;
6693;SDS011;3384;42.628;23.380;2023-02-05T12:39:58;1.73;;;0.70;;
6693;SDS011;3384;42.628;23.380;2023-02-05T12:42:35;3.50;;;0.90;;
6693;SDS011;3384;42.628;23.380;2023-02-05T12:45:07;0.30;;;0.30;;
6693;SDS011;3384;42.628;23.380;2023-02-05T12:51:01;0.47;;;0.40;;
6693;SDS011;3384;42.628;23.380;2023-02-05T12:53:38;0.50;;;0.50;;
6693;SDS011;3384;42.628;23.380;2023-02-05T12:59:10;0.60;;;0.53;;
6693;SDS011;3384;42.628;23.380;2023-02-05T13:01:44;0.90;;;0.60;;
6693;SDS011;3384;42.628;23.380;2023-02-05T13:04:20;0.63;;;0.30;;
6693;SDS011;3384;42.628;23.380;2023-02-05T13:06:51;1.40;;;1.40;;
6693;SDS011;3384;42.628;23.380;2023-02-05T13:09:23;1.33;;;1.33;;
6693;SDS011;3384;42.628;23.380;2023-02-05T13:11:55;0.90;;;0.90;;
6693;SDS011;3384;42.628;23.380;2023-02-05T13:14:27;1.13;;;1.13;;
6693;SDS011;3384;42.628;23.380;2023-02-05T13:17:00;1.43;;;1.40;;
6693;SDS011;3384;42.628;23.380;2023-02-05T13:19:32;1.47;;;1.47;;
6693;SDS011;3384;42.628;23.380;2023-02-05T13:22:06;1.77;;;1.67;;
6693;SDS011;3384;42.628;23.380;2023-02-05T13:24:56;1.40;;;1.40;;
6693;SDS011;3384;42.628;23.380;2023-02-05T13:27:45;1.10;;;1.10;;
6693;SDS011;3384;42.628;23.380;2023-02-05T13:30:35;1.77;;;1.67;;
6693;SDS011;3384;42.628;23.380;2023-02-05T13:33:05;1.37;;;1.37;;
6693;SDS011;3384;42.628;23.380;2023-02-05T13:35:40;1.40;;;1.37;;
6693;SDS011;3384;42.628;23.380;2023-02-05T13:38:28;1.73;;;1.63;;
6693;SDS011;3384;42.628;23.380;2023-02-05T13:41:19;1.90;;;1.80;;
6693;SDS011;3384;42.628;23.380;2023-02-05T13:47:16;1.63;;;1.57;;
6693;SDS011;3384;42.628;23.380;2023-02-05T13:53:02;1.73;;;1.63;;
6693;SDS011;3384;42.628;23.380;2023-02-05T13:55:44;1.60;;;1.60;;
6693;SDS011;3384;42.628;23.380;2023-02-05T13:58:35;2.03;;;1.93;;
6693;SDS011;3384;42.628;23.380;2023-02-05T14:01:13;1.53;;;1.53;;
6693;SDS011;3384;42.628;23.380;2023-02-05T14:03:45;0.90;;;0.90;;
6693;SDS011;3384;42.628;23.380;2023-02-05T14:06:21;5.50;;;1.50;;
6693;SDS011;3384;42.628;23.380;2023-02-05T14:08:57;12.83;;;1.50;;
6693;SDS011;3384;42.628;23.380;2023-02-05T14:11:26;2.50;;;2.40;;
6693;SDS011;3384;42.628;23.380;2023-02-05T14:16:52;4.10;;;3.67;;
6693;SDS011;3384;42.628;23.380;2023-02-05T14:19:20;2.83;;;2.63;;
6693;SDS011;3384;42.628;23.380;2023-02-05T14:24:39;3.10;;;2.90;;
6693;SDS011;3384;42.628;23.380;2023-02-05T14:30:32;2.03;;;1.93;;
6693;SDS011;3384;42.628;23.380;2023-02-05T14:33:02;2.53;;;2.40;;
6693;SDS011;3384;42.628;23.380;2023-02-05T14:35:53;3.70;;;2.90;;
6693;SDS011;3384;42.628;23.380;2023-02-05T14:38:21;2.00;;;2.00;;
6693;SDS011;3384;42.628;23.380;2023-02-05T14:41:02;4.20;;;3.90;;
6693;SDS011;3384;42.628;23.380;2023-02-05T14:43:35;2.67;;;2.47;;
6693;SDS011;3384;42.628;23.380;2023-02-05T14:46:05;3.37;;;2.67;;
6693;SDS011;3384;42.628;23.380;2023-02-05T14:48:50;3.30;;;3.10;;
6693;SDS011;3384;42.628;23.380;2023-02-05T14:51:23;1.67;;;1.57;;
6693;SDS011;3384;42.628;23.380;2023-02-05T14:53:52;11.13;;;3.47;;
6693;SDS011;3384;42.628;23.380;2023-02-05T14:56:24;4.00;;;3.80;;
6693;SDS011;3384;42.628;23.380;2023-02-05T14:58:56;4.03;;;3.83;;
6693;SDS011;3384;42.628;23.380;2023-02-05T15:04:23;2.13;;;1.90;;
6693;SDS011;3384;42.628;23.380;2023-02-05T15:07:07;1.93;;;1.93;;
6693;SDS011;3384;42.628;23.380;2023-02-05T15:09:39;2.43;;;2.27;;
6693;SDS011;3384;42.628;23.380;2023-02-05T15:15:27;1.67;;;1.67;;
6693;SDS011;3384;42.628;23.380;2023-02-05T15:17:58;2.10;;;2.00;;
6693;SDS011;3384;42.628;23.380;2023-02-05T15:20:30;2.13;;;1.80;;
6693;SDS011;3384;42.628;23.380;2023-02-05T15:23:03;4.53;;;2.37;;
6693;SDS011;3384;42.628;23.380;2023-02-05T15:25:49;2.87;;;2.77;;
6693;SDS011;3384;42.628;23.380;2023-02-05T15:28:26;1.73;;;1.67;;
6693;SDS011;3384;42.628;23.380;2023-02-05T15:31:03;1.70;;;1.60;;
6693;SDS011;3384;42.628;23.380;2023-02-05T15:33:39;1.80;;;1.80;;
6693;SDS011;3384;42.628;23.380;2023-02-05T15:36:12;2.27;;;2.17;;
6693;SDS011;3384;42.628;23.380;2023-02-05T15:38:47;1.63;;;1.53;;
6693;SDS011;3384;42.628;23.380;2023-02-05T15:41:19;3.30;;;3.10;;
6693;SDS011;3384;42.628;23.380;2023-02-05T15:43:57;2.77;;;2.67;;
6693;SDS011;3384;42.628;23.380;2023-02-05T15:46:27;4.13;;;4.00;;
6693;SDS011;3384;42.628;23.380;2023-02-05T15:48:58;2.93;;;2.73;;
6693;SDS011;3384;42.628;23.380;2023-02-05T15:51:27;3.13;;;3.03;;
6693;SDS011;3384;42.628;23.380;2023-02-05T15:53:57;2.87;;;2.67;;
6693;SDS011;3384;42.628;23.380;2023-02-05T15:56:27;2.77;;;2.57;;
6693;SDS011;3384;42.628;23.380;2023-02-05T15:59:01;3.60;;;3.50;;
6693;SDS011;3384;42.628;23.380;2023-02-05T16:01:32;2.73;;;2.60;;
6693;SDS011;3384;42.628;23.380;2023-02-05T16:04:02;3.57;;;3.47;;
6693;SDS011;3384;42.628;23.380;2023-02-05T16:06:41;3.33;;;2.90;;
6693;SDS011;3384;42.628;23.380;2023-02-05T16:09:12;3.50;;;3.30;;
6693;SDS011;3384;42.628;23.380;2023-02-05T16:11:41;4.80;;;3.30;;
6693;SDS011;3384;42.628;23.380;2023-02-05T16:14:12;4.70;;;4.27;;
6693;SDS011;3384;42.628;23.380;2023-02-05T16:16:40;2.80;;;2.60;;
6693;SDS011;3384;42.628;23.380;2023-02-05T16:19:14;3.53;;;3.23;;
6693;SDS011;3384;42.628;23.380;2023-02-05T16:21:46;7.90;;;2.30;;
6693;SDS011;3384;42.628;23.380;2023-02-05T16:24:21;3.77;;;3.47;;
6693;SDS011;3384;42.628;23.380;2023-02-05T16:26:56;2.90;;;2.77;;